Home > Products > Valid Products > MTR

000
SAUS45 KPIH 302252
MTRSNT
METAR KSNT 302251Z AUTO 31011G17KT 21/06 A3039 RMK AO1 SLP202
T02060061





000
SAUS45 KPIH 302152
MTRSNT
METAR KSNT 302151Z AUTO 08005KT 21/07 A3035 RMK AO1 SLP188 T02060072





000
SAUS45 KPIH 302052
MTRSNT
METAR KSNT 302051Z AUTO 28007G19KT 24/03 A3034 RMK AO1 SLP176
T02390028 53001





000
SAUS45 KPIH 301952
MTRSNT
METAR KSNT 301951Z AUTO 35007KT 29/03 A3031 RMK AO1 SLP146 T02890033





000
SAUS45 KPIH 301852
MTRSNT
METAR KSNT 301851Z AUTO 00000KT 27/04 A3032 RMK AO1 SLP149 T02670039





000
SAUS45 KPIH 301752
MTRSNT
METAR KSNT 301751Z AUTO VRB04KT 25/06 A3034 RMK AO1 SLP157 6////
T02500061 56013





000
SAUS45 KPIH 301652
MTRSNT
METAR KSNT 301651Z AUTO 00000KT 21/08 A3036 RMK AO1 SLP179 T02110078





000
SAUS45 KPIH 301552
MTRSNT
METAR KSNT 301551Z AUTO 08005KT 20/08 A3036 RMK AO1 SLP183 T02000078





000
SAUS45 KPIH 301452
MTRSNT
METAR KSNT 301451Z AUTO 10004KT A3038 RMK AO1 SLPNO 6//// 53004 PNO
$





000
SAUS45 KPIH 301352
MTRSNT
METAR KSNT 301351Z AUTO 00000KT 08/06 A3038 RMK AO1 SLP203 T00830061





000
SAUS45 KPIH 301252
MTRSNT
METAR KSNT 301251Z AUTO 00000KT 08/06 A3037 RMK AO1 SLP194 T00830056





000
SAUS45 KPIH 301152
MTRSNT
METAR KSNT 301151Z AUTO 00000KT 08/06 A3037 RMK AO1 SLP194 T00780056
10178 20078 53003





000
SAUS45 KPIH 301052
MTRSNT
METAR KSNT 301051Z AUTO 00000KT 10/06 A3036 RMK AO1 SLP184 T01000061





000
SAUS45 KPIH 300952
MTRSNT
METAR KSNT 300951Z AUTO 00000KT 11/07 A3035 RMK AO1 SLP177 T01110067





000
SAUS45 KPIH 300852
MTRSNT
METAR KSNT 300851Z AUTO 17004KT 12/07 A3036 RMK AO1 SLP182 T01170067
50002





000
SAUS45 KPIH 300752
MTRSNT
METAR KSNT 300751Z AUTO 00000KT 15/07 A3036 RMK AO1 SLP168 T01500072





000
SAUS45 KPIH 300652
MTRSNT
METAR KSNT 300651Z AUTO 12004KT 17/07 A3036 RMK AO1 SLP161 T01720072
402890044





000
SAUS45 KPIH 300552
MTRSNT
METAR KSNT 300551Z AUTO 14007KT 18/07 A3036 RMK AO1 SLP165 T01780067
10244 20144 53014





000
SAUS45 KPIH 300452
MTRSNT
METAR KSNT 300451Z AUTO 15003KT 15/05 A3034 RMK AO1 SLP174 T01500050





000
SAUS45 KPIH 300352
MTRSNT
METAR KSNT 300351Z AUTO 16003KT 16/05 A3032 RMK AO1 SLP176 T01560050





000
SAUS45 KPIH 300252
MTRSNT
METAR KSNT 300251Z AUTO 18003KT 19/06 A3030 RMK AO1 SLP173 T01890061
53000





000
SAUS45 KPIH 300152
MTRSNT
METAR KSNT 300151Z AUTO 00000KT 21/06 A3029 RMK AO1 SLP172 T02110056





000
SAUS45 KPIH 300052
MTRSNT
METAR KSNT 300051Z AUTO 00000KT 23/04 A3029 RMK AO1 SLP173 T02330039





000
SAUS45 KPIH 292352
MTRSNT
METAR KSNT 292351Z AUTO 32005KT 24/03 A3030 RMK AO1 SLP172 T02440033
10289 20228 56009





000
SAUS45 KPIH 292252
MTRSNT
METAR KSNT 292251Z AUTO VRB03KT 25/03 A3031 RMK AO1 SLP176 T02500033





000
SAUS45 KPIH 292152
MTRSNT
METAR KSNT 292151Z AUTO 18010KT 25/03 A3032 RMK AO1 SLP175 T02500033





000
SAUS45 KPIH 292052
MTRSNT
METAR KSNT 292051Z AUTO VRB06KT 23/04 A3033 RMK AO1 SLP183 T02330039
55003





000
SAUS45 KPIH 291952
MTRSNT
METAR KSNT 291951Z AUTO 00000KT 27/02 A3031 RMK AO1 SLP160 T02720022





000
SAUS45 KPIH 291852
MTRSNT
METAR KSNT 291851Z AUTO 34009KT 27/06 A3032 RMK AO1 SLP163 T02720056





000
SAUS45 KPIH 291752
MTRSNT
METAR KSNT 291751Z AUTO 34007KT 24/08 A3034 RMK AO1 SLP174 T02440078
10244 20044 58016





000
SAUS45 KPIH 291652
MTRSNT
METAR KSNT 291651Z AUTO VRB05KT 21/08 A3036 RMK AO1 SLP187 T02060083





000
SAUS45 KPIH 291552
MTRSNT
METAR KSNT 291551Z AUTO 00000KT 17/08 A3039 RMK AO1 SLP196 T01670083





000
SAUS45 KPIH 291452
MTRSNT
METAR KSNT 291451Z AUTO 04003KT 12/08 A3040 RMK AO1 SLP212 T01220078
53003





000
SAUS45 KPIH 291352
MTRSNT
METAR KSNT 291351Z AUTO 07004KT 07/06 A3040 RMK AO1 SLP221 T00720061





000
SAUS45 KPIH 291252
MTRSNT
METAR KSNT 291251Z AUTO 00000KT 05/04 A3039 RMK AO1 SLP216 T00500044





000
SAUS45 KPIH 291152
MTRSNT
METAR KSNT 291151Z AUTO 00000KT 07/06 A3039 RMK AO1 SLP209 70001
T00670056 10117 20056 53002





000
SAUS45 KPIH 291052
MTRSNT
METAR KSNT 291051Z AUTO 00000KT 06/05 A3038 RMK AO1 SLP209 T00560050





000
SAUS45 KPIH 290952
MTRSNT
METAR KSNT 290951Z AUTO 17003KT 07/06 A3038 RMK AO1 SLP194 T00720061





000
SAUS45 KPIH 290852
MTRSNT
METAR KSNT 290851Z AUTO 00000KT 08/07 A3038 RMK AO1 SLP196 T00780067
58001





000
SAUS45 KPIH 290753
MTRSNT
METAR KSNT 290751Z AUTO 15004KT 09/07 A3039 RMK AO1 SLP195 T00890072





000
SAUS45 KPIH 290652
MTRSNT
METAR KSNT 290651Z AUTO 19003KT 10/08 A3039 RMK AO1 SLP188 T01000078
402780100





000
SAUS45 KPIH 290552
MTRSNT
METAR KSNT 290551Z AUTO 00000KT 12/08 A3039 RMK AO1 SLP200 T01170083
10217 20117 51007





000
SAUS45 KPIH 290452
MTRSNT
METAR KSNT 290451Z AUTO 15003KT 13/09 A3038 RMK AO1 SLP194 T01280089





000
SAUS45 KPIH 290352
MTRSNT
METAR KSNT 290351Z AUTO 02003KT 16/09 A3037 RMK AO1 SLP190 T01610094





000
SAUS45 KPIH 290252
MTRSNT
METAR KSNT 290251Z AUTO 09006KT 17/10 A3036 RMK AO1 SLP191 T01670100
50001





000
SAUS45 KPIH 290152
MTRSNT
METAR KSNT 290151Z AUTO 01006KT 17/11 A3041 RMK AO1 SLP209 T01720111





000
SAUS45 KPIH 290052
MTRSNT
METAR KSNT 290051Z AUTO 32009KT 20/08 A3040 RMK AO1 SLP203 T02000083





000
SAUS45 KPIH 282352
MTRSNT
METAR KSNT 282351Z AUTO VRB04KT 22/09 A3036 RMK AO1 SLP184 P0001
60001 T02170089 10278 20200 56004





000
SAUS45 KPIH 282252
MTRSNT
METAR KSNT 282251Z AUTO 01007KT 22/09 A3036 RMK AO1 SLP185 T02170089





000
SAUS45 KPIH 282152
MTRSNT
METAR KSNT 282151Z AUTO 17009KT 26/05 A3036 RMK AO1 SLP173 T02610050





000
SAUS45 KPIH 282052
MTRSNT
METAR KSNT 282051Z AUTO 13009KT 100V160 26/06 A3038 RMK AO1 SLP175
T02560061 53002





000
SAUS45 KPIH 281952
MTRSNT
METAR KSNT 281951Z AUTO 36004KT 25/05 A3037 RMK AO1 SLP176 T02500050





000
SAUS45 KPIH 281852
MTRSNT
METAR KSNT 281851Z AUTO VRB03KT 26/03 A3036 RMK AO1 SLP165 T02610028





000
SAUS45 KPIH 281752
MTRSNT
METAR KSNT 281751Z AUTO 00000KT 21/06 A3037 RMK AO1 SLP180 T02060056
10206 20117 58003





000
SAUS45 KPIH 281652
MTRSNT
METAR KSNT 281651Z AUTO 13003KT 21/04 A3037 RMK AO1 SLP173 T02060044





000
SAUS45 KPIH 281552
MTRSNT
METAR KSNT 281551Z AUTO 07003KT 18/02 A3038 RMK AO1 SLP172 T01830017





000
SAUS45 KPIH 281452
MTRSNT
METAR KSNT 281451Z AUTO 00000KT 16/02 A3038 RMK AO1 SLP176 T01560022
53005





000
SAUS45 KPIH 281352
MTRSNT
METAR KSNT 281351Z AUTO 00000KT 13/02 A3037 RMK AO1 SLP169 T01330022





000
SAUS45 KPIH 281252
MTRSNT
METAR KSNT 281251Z AUTO 00000KT 12/02 A3036 RMK AO1 SLP170 T01170022





000
SAUS45 KPIH 281152
MTRSNT
METAR KSNT 281151Z AUTO 31003KT 13/01 A3036 RMK AO1 SLP165 T01280011
10189 20117 50005





000
SAUS45 KPIH 281052
MTRSNT
METAR KSNT 281051Z AUTO 00000KT 13/01 A3036 RMK AO1 SLP168 T01280006





000
SAUS45 KPIH 280952
MTRSNT
METAR KSNT 280951Z AUTO 00000KT 12/01 A3035 RMK AO1 SLP163 T01220006





000
SAUS45 KPIH 280852
MTRSNT
METAR KSNT 280851Z AUTO 19005KT 15/M01 A3034 RMK AO1 SLP157
T01501011 53004





000
SAUS45 KPIH 280752
MTRSNT
METAR KSNT 280751Z AUTO 18003KT 13/M01 A3034 RMK AO1 SLP160
T01331011





000
SAUS45 KPIH 280652
MTRSNT
METAR KSNT 280651Z AUTO 00000KT 16/M01 A3033 RMK AO1 SLP155
T01611006 403111011





000
SAUS45 KPIH 280552
MTRSNT
METAR KSNT 280551Z AUTO 16004KT 17/M01 A3033 RMK AO1 SLP159
T01671006 10311 20167 53012





000
SAUS45 KPIH 280452
MTRSNT
METAR KSNT 280451Z AUTO 00000KT 21/M02 A3032 RMK AO1 SLP156
T02061022





000
SAUS45 KPIH 280352
MTRSNT
METAR KSNT 280351Z AUTO 00000KT 25/M04 A3030 RMK AO1 SLP154
T02501044





000
SAUS45 KPIH 280252
MTRSNT
METAR KSNT 280251Z AUTO 23004KT 25/M02 A3029 RMK AO1 SLP157
T02501022 55000





000
SAUS45 KPIH 280152
MTRSNT
METAR KSNT 280151Z AUTO 32003KT 30/M06 A3027 RMK AO1 SLP155
T03001061





000
SAUS45 KPIH 280052
MTRSNT
METAR KSNT 280051Z AUTO 20006KT 29/M07 A3028 RMK AO1 SLP169
T02941067





000
SAUS45 KPIH 272352
MTRSNT
METAR KSNT 272351Z AUTO 05005KT 31/M06 A3029 RMK AO1 SLP170
T03061061 10311 20239 57014





    US Dept of Commerce
    National Oceanic and Atmospheric Administration
    National Weather Service
    1325 East West Highway
    Silver Spring, MD 20910
    Page Author: NWS Internet Services Team
Disclaimer
Information Quality
Credits
Glossary
Privacy Policy
Freedom of Information Act (FOIA)
About Us
Career Opportunities